Time;durP1;ratioP1;P1;durP2;ratioP2;P2;SDS_P1;SDS_P2;PMS_P1;PMS_P2;Temp;Humidity;BMP_temperature;BMP_pressure;BME280_temperature;BME280_humidity;BME280_pressure;Samples;Min_cycle;Max_cycle;Signal;HPM_P1;HPM_P2
2022/12/17 13:06:14;;;;;;;74.57;27.20;;;-2.40;82.10;;;;;;5022275;28;20201;-74
2022/12/17 13:08:41;;;;;;;61.58;27.17;;;-2.30;81.90;;;;;;5026325;28;20189;-72
2022/12/17 13:11:28;;;;;;;64.55;27.90;;;-2.20;81.50;;;;;;5022525;28;20292;-73
2022/12/17 13:14:00;;;;;;;63.60;26.55;;;-2.20;81.50;;;;;;5017266;28;20264;-74
2022/12/17 13:16:36;;;;;;;65.85;26.50;;;-2.10;81.10;;;;;;5027070;28;20209;-71
2022/12/17 13:19:16;;;;;;;72.80;28.08;;;-2.00;80.50;;;;;;5027600;28;20560;-73
2022/12/17 13:21:42;;;;;;;69.47;27.25;;;-1.90;80.50;;;;;;5029198;28;20209;-73
2022/12/17 13:24:21;;;;;;;67.97;28.47;;;-1.90;80.00;;;;;;5018765;28;20538;-71
2022/12/17 13:26:47;;;;;;;64.15;27.92;;;-1.80;80.00;;;;;;5030642;28;20686;-73
2022/12/17 13:29:25;;;;;;;71.57;28.97;;;-1.70;79.60;;;;;;5022531;28;20276;-72
2022/12/17 13:32:00;;;;;;;60.22;26.52;;;-1.80;79.20;;;;;;5029183;28;20467;-74
2022/12/17 13:34:40;;;;;;;64.90;27.25;;;-1.90;79.20;;;;;;5021152;28;20180;-73
2022/12/17 13:37:17;;;;;;;71.45;30.48;;;-1.90;79.20;;;;;;5020075;28;20680;-74
2022/12/17 13:40:09;;;;;;;69.70;29.83;;;-1.90;79.30;;;;;;5023990;28;20211;-72
2022/12/17 13:42:35;;;;;;;70.05;28.80;;;-1.90;79.30;;;;;;5021445;28;20327;-73
2022/12/17 13:45:02;;;;;;;67.07;28.38;;;-1.90;79.30;;;;;;5019903;28;20182;-73
2022/12/17 13:47:31;;;;;;;71.00;28.25;;;-1.90;79.60;;;;;;5018623;28;20188;-73
2022/12/17 13:49:58;;;;;;;72.50;30.77;;;-1.90;79.70;;;;;;5024087;28;20216;-74
2022/12/17 13:52:26;;;;;;;75.03;29.58;;;-1.90;79.90;;;;;;5023462;28;20209;-73
2022/12/17 13:54:52;;;;;;;67.93;30.35;;;-1.90;79.90;;;;;;5027275;28;20190;-72
2022/12/17 13:57:21;;;;;;;85.55;29.98;;;-1.90;80.00;;;;;;5026524;28;20205;-71
2022/12/17 13:59:54;;;;;;;67.65;28.33;;;-2.10;79.70;;;;;;5024640;28;20177;-74
2022/12/17 14:02:25;;;;;;;78.10;31.20;;;-2.30;80.60;;;;;;5026231;28;20197;-73
2022/12/17 14:04:52;;;;;;;73.32;29.45;;;-2.50;81.10;;;;;;5016465;28;20198;-70
2022/12/17 14:07:19;;;;;;;80.72;30.50;;;-2.60;81.50;;;;;;5027710;28;20220;-72
2022/12/17 14:09:45;;;;;;;78.70;31.85;;;-2.70;82.10;;;;;;5020633;28;20558;-73
2022/12/17 14:12:22;;;;;;;90.75;31.90;;;-2.80;82.70;;;;;;5026032;28;20206;-72
2022/12/17 14:14:58;;;;;;;84.15;32.65;;;-2.90;82.80;;;;;;5025954;28;20182;-70
2022/12/17 14:17:27;;;;;;;77.68;31.67;;;-2.90;83.30;;;;;;5038318;28;20223;-70
2022/12/17 14:20:03;;;;;;;87.63;32.88;;;-3.00;83.40;;;;;;5028869;28;20181;-74
2022/12/17 14:22:36;;;;;;;83.07;33.17;;;-3.00;83.60;;;;;;5036653;28;20184;-74
2022/12/17 14:25:03;;;;;;;76.75;30.08;;;-3.10;83.70;;;;;;5038395;28;20177;-73
2022/12/17 14:27:34;;;;;;;77.60;30.38;;;-3.10;84.00;;;;;;5041222;28;20264;-70
2022/12/17 14:30:01;;;;;;;72.90;28.15;;;-3.10;84.00;;;;;;5033308;28;20185;-75
2022/12/17 14:32:33;;;;;;;78.88;32.47;;;-3.10;84.00;;;;;;5040539;28;20260;-71
2022/12/17 14:34:59;;;;;;;77.38;29.85;;;-3.10;84.10;;;;;;5032735;28;20193;-71
2022/12/17 14:37:26;;;;;;;77.43;32.30;;;-3.10;84.30;;;;;;5028152;28;20259;-70
2022/12/17 14:40:01;;;;;;;75.18;30.17;;;-3.10;84.30;;;;;;5036568;28;20629;-72
2022/12/17 14:42:31;;;;;;;79.43;29.77;;;-3.10;84.10;;;;;;5034146;28;20184;-71
2022/12/17 14:45:00;;;;;;;80.03;30.75;;;-3.10;84.00;;;;;;5031256;28;20192;-73
2022/12/17 14:47:32;;;;;;;76.45;29.05;;;-3.20;84.10;;;;;;5028265;28;20280;-75
2022/12/17 14:50:26;;;;;;;86.35;30.25;;;-3.20;84.10;;;;;;5030565;28;20186;-75
2022/12/17 14:52:54;;;;;;;79.72;30.73;;;-3.20;84.10;;;;;;5037758;28;20280;-72
2022/12/17 14:55:50;;;;;;;80.55;31.25;;;-3.20;84.10;;;;;;5038311;28;20182;-74
2022/12/17 14:58:18;;;;;;;84.93;33.50;;;-3.20;84.30;;;;;;5032345;28;20210;-74
2022/12/17 15:00:56;;;;;;;81.78;32.15;;;-3.30;84.10;;;;;;5041469;28;20208;-73
2022/12/17 15:03:32;;;;;;;76.28;29.25;;;-3.30;84.10;;;;;;5036054;28;20200;-72
2022/12/17 15:06:01;;;;;;;68.00;30.90;;;-3.40;84.10;;;;;;5037989;28;20257;-73
2022/12/17 15:08:31;;;;;;;79.97;32.25;;;-3.50;84.00;;;;;;5041134;28;20211;-76
2022/12/17 15:10:57;;;;;;;67.90;28.98;;;-3.60;84.10;;;;;;5033643;28;20229;-74
2022/12/17 15:13:23;;;;;;;77.77;31.27;;;-3.60;84.40;;;;;;5038492;28;20189;-72
2022/12/17 15:15:48;;;;;;;80.33;30.40;;;-3.70;84.40;;;;;;5028305;28;20648;-73
2022/12/17 15:18:14;;;;;;;76.17;29.73;;;-3.70;84.70;;;;;;5038930;28;20217;-72
2022/12/17 15:20:39;;;;;;;83.47;30.60;;;-3.80;85.00;;;;;;5033696;28;20213;-76
2022/12/17 15:23:08;;;;;;;90.80;31.30;;;-3.90;85.00;;;;;;5029120;28;20186;-71
2022/12/17 15:25:33;;;;;;;79.05;30.42;;;-4.00;85.60;;;;;;5021767;28;20200;-76
2022/12/17 15:27:59;;;;;;;69.83;28.80;;;-4.10;85.70;;;;;;5028642;28;20181;-75
2022/12/17 15:30:25;;;;;;;66.53;28.33;;;-4.10;86.50;;;;;;5021807;28;20305;-77
2022/12/17 15:32:50;;;;;;;75.20;27.47;;;-4.10;86.90;;;;;;5023259;28;20188;-76
2022/12/17 15:35:16;;;;;;;80.37;30.60;;;-4.10;87.30;;;;;;5022761;28;20679;-76
2022/12/17 15:37:42;;;;;;;77.17;30.07;;;-4.20;87.30;;;;;;5026661;28;20302;-75
2022/12/17 15:40:10;;;;;;;84.97;33.20;;;-4.20;87.30;;;;;;5024638;28;20182;-76
2022/12/17 15:45:20;;;;;;;77.38;29.73;;;-4.20;88.10;;;;;;5021811;28;20196;-75
2022/12/17 15:47:46;;;;;;;77.93;31.27;;;-4.20;88.60;;;;;;5025575;28;20545;-76
2022/12/17 15:50:11;;;;;;;81.57;30.67;;;-4.20;88.60;;;;;;5024667;28;21025;-71
2022/12/17 15:52:37;;;;;;;91.80;33.37;;;-4.30;88.60;;;;;;5034049;28;20197;-73
2022/12/17 15:55:03;;;;;;;78.30;30.30;;;-4.40;88.40;;;;;;5044032;28;21018;-75
2022/12/17 15:57:28;;;;;;;71.67;29.10;;;-4.40;88.30;;;;;;5043179;28;20209;-75
2022/12/17 15:59:54;;;;;;;70.40;30.47;;;-4.50;88.40;;;;;;5042559;28;20188;-75
2022/12/17 16:02:19;;;;;;;75.57;30.50;;;-4.50;88.60;;;;;;5035914;28;20280;-75
2022/12/17 16:04:45;;;;;;;80.83;32.20;;;-4.60;88.70;;;;;;5034062;28;20334;-74
2022/12/17 16:07:11;;;;;;;73.03;28.97;;;-4.60;88.90;;;;;;5037909;28;20189;-74
2022/12/17 16:09:36;;;;;;;76.47;29.30;;;-4.60;89.00;;;;;;5043189;28;20911;-74
2022/12/17 16:12:02;;;;;;;77.97;29.03;;;-4.70;88.90;;;;;;5040268;28;20248;-72
2022/12/17 16:14:27;;;;;;;76.40;29.83;;;-4.70;88.90;;;;;;5044583;28;20409;-75
2022/12/17 16:16:53;;;;;;;78.67;30.40;;;-4.80;88.90;;;;;;5037016;28;20210;-70
2022/12/17 16:19:19;;;;;;;86.27;32.47;;;-4.90;88.90;;;;;;5037713;28;20197;-74
2022/12/17 16:21:44;;;;;;;72.07;31.27;;;-4.90;89.00;;;;;;5025885;28;20209;-74
2022/12/17 16:24:10;;;;;;;74.60;30.27;;;-4.90;89.20;;;;;;5025835;28;20692;-74
2022/12/17 16:26:36;;;;;;;94.20;35.37;;;-5.00;89.20;;;;;;5020354;28;20181;-75
2022/12/17 16:29:02;;;;;;;92.63;34.85;;;-5.00;89.50;;;;;;5022227;28;20421;-74
2022/12/17 16:31:28;;;;;;;97.22;35.78;;;-5.00;89.70;;;;;;5025603;28;20235;-75
2022/12/17 16:33:54;;;;;;;110.17;38.73;;;-5.00;89.90;;;;;;5024197;28;20181;-74
2022/12/17 16:36:20;;;;;;;97.53;38.03;;;-5.00;90.00;;;;;;5020339;28;20213;-75
2022/12/17 16:38:52;;;;;;;90.25;34.53;;;-5.00;90.00;;;;;;5022093;28;20216;-75
2022/12/17 16:41:18;;;;;;;74.80;31.85;;;-5.00;90.10;;;;;;5026479;28;20239;-74
2022/12/17 16:43:45;;;;;;;89.63;33.70;;;-5.00;90.20;;;;;;5021264;28;20228;-75
2022/12/17 16:46:22;;;;;;;96.10;35.10;;;-4.90;90.00;;;;;;5027461;28;20276;-74
2022/12/17 16:48:48;;;;;;;103.88;37.40;;;-5.00;90.00;;;;;;5020129;28;20182;-72
2022/12/17 16:51:16;;;;;;;94.70;35.40;;;-5.00;90.00;;;;;;5022680;28;20221;-71
2022/12/17 16:53:42;;;;;;;97.05;36.90;;;-5.00;90.00;;;;;;5030478;28;20577;-74
2022/12/17 16:56:14;;;;;;;111.13;39.33;;;-5.00;90.00;;;;;;5028086;28;20218;-73
2022/12/17 16:58:39;;;;;;;94.15;35.85;;;-5.10;89.90;;;;;;5026560;28;20193;-74
2022/12/17 17:01:05;;;;;;;97.10;38.37;;;-5.20;89.90;;;;;;5026518;28;20347;-78
2022/12/17 17:03:31;;;;;;;109.10;38.20;;;-5.20;90.00;;;;;;5031653;28;20184;-72
2022/12/17 17:05:59;;;;;;;112.57;40.27;;;-5.20;90.00;;;;;;5024994;28;20284;-72
2022/12/17 17:08:25;;;;;;;121.95;40.97;;;-5.20;90.00;;;;;;5016549;28;20582;-72
2022/12/17 17:10:51;;;;;;;103.53;39.40;;;-5.20;90.00;;;;;;5030881;28;20292;-71
2022/12/17 17:13:16;;;;;;;104.50;41.07;;;-5.20;90.00;;;;;;5032549;28;20581;-72
2022/12/17 17:15:42;;;;;;;120.90;39.93;;;-5.20;90.10;;;;;;5023321;28;20204;-73
2022/12/17 17:18:07;;;;;;;101.23;40.20;;;-5.10;90.10;;;;;;5018069;28;20282;-72
2022/12/17 17:20:33;;;;;;;107.63;39.57;;;-5.20;90.10;;;;;;5022833;28;20205;-71
2022/12/17 17:22:59;;;;;;;113.63;38.93;;;-5.20;90.00;;;;;;5021320;28;20621;-71
2022/12/17 17:25:24;;;;;;;100.03;40.13;;;-5.20;90.00;;;;;;5025487;28;20248;-72
2022/12/17 17:27:50;;;;;;;103.07;38.90;;;-5.20;90.00;;;;;;5019633;28;20201;-70
2022/12/17 17:30:16;;;;;;;100.10;36.92;;;-5.20;90.00;;;;;;5023213;28;20649;-70
2022/12/17 17:32:41;;;;;;;100.00;35.63;;;-5.20;90.00;;;;;;5024677;28;20189;-71
2022/12/17 17:35:07;;;;;;;93.90;36.40;;;-5.10;90.00;;;;;;5024504;28;20189;-70
2022/12/17 17:37:33;;;;;;;106.33;39.10;;;-5.20;89.90;;;;;;5030497;28;20209;-71
2022/12/17 17:39:58;;;;;;;107.17;38.70;;;-5.20;89.70;;;;;;5024530;28;20181;-72
2022/12/17 17:42:24;;;;;;;98.90;39.93;;;-5.20;89.70;;;;;;5030251;28;20209;-71
2022/12/17 17:44:50;;;;;;;100.67;37.43;;;-5.30;89.70;;;;;;5025244;28;20185;-72
2022/12/17 17:47:16;;;;;;;119.00;38.67;;;-5.30;89.90;;;;;;5026392;28;20204;-72
2022/12/17 17:49:41;;;;;;;111.13;37.53;;;-5.30;89.90;;;;;;5020865;28;20182;-72
2022/12/17 17:52:07;;;;;;;122.07;39.50;;;-5.50;89.60;;;;;;5023255;28;20256;-73
2022/12/17 17:54:32;;;;;;;104.70;38.47;;;-5.70;89.30;;;;;;5022151;28;20263;-70
2022/12/17 17:56:58;;;;;;;87.67;35.27;;;-5.80;89.30;;;;;;5018727;28;20212;-74
2022/12/17 17:59:24;;;;;;;111.00;37.30;;;-5.80;89.50;;;;;;5017188;28;20190;-73
2022/12/17 18:01:50;;;;;;;90.53;36.30;;;-5.80;89.70;;;;;;5023929;28;20669;-72
2022/12/17 18:04:19;;;;;;;93.45;35.60;;;-5.70;89.90;;;;;;5028476;28;20185;-74
2022/12/17 18:06:45;;;;;;;86.10;32.95;;;-5.70;89.90;;;;;;5016278;28;20197;-76
2022/12/17 18:09:12;;;;;;;98.43;35.20;;;-5.70;90.00;;;;;;5021245;28;20189;-70
2022/12/17 18:11:39;;;;;;;105.70;36.58;;;-5.70;90.00;;;;;;5019185;28;20205;-73
2022/12/17 18:14:06;;;;;;;97.80;36.30;;;-5.70;90.00;;;;;;5018267;28;20565;-72
2022/12/17 18:16:36;;;;;;;91.95;34.70;;;-5.70;90.00;;;;;;5017542;28;20200;-71
2022/12/17 18:19:08;;;;;;;99.47;36.75;;;-5.80;90.00;;;;;;5014226;28;20182;-70
2022/12/17 18:21:33;;;;;;;91.10;36.67;;;-5.80;89.90;;;;;;5015517;28;20209;-72
2022/12/17 18:24:02;;;;;;;104.07;37.20;;;-5.80;90.00;;;;;;5010654;28;20221;-72
2022/12/17 18:26:30;;;;;;;102.32;36.80;;;-5.80;90.00;;;;;;5027027;28;20217;-73
2022/12/17 18:29:01;;;;;;;98.90;38.13;;;-5.90;90.00;;;;;;5018730;28;20193;-74
2022/12/17 18:31:28;;;;;;;109.88;40.38;;;-5.90;90.00;;;;;;5027021;28;20209;-73
2022/12/17 18:33:59;;;;;;;97.93;37.88;;;-6.00;90.00;;;;;;5026327;28;20189;-73
2022/12/17 18:36:32;;;;;;;102.95;36.22;;;-6.00;90.00;;;;;;5023031;28;20250;-73
2022/12/17 18:39:07;;;;;;;113.00;40.45;;;-6.00;90.00;;;;;;5019284;28;20217;-73
2022/12/17 18:44:18;;;;;;;99.95;34.75;;;-6.10;90.10;;;;;;5016217;28;20192;-72
2022/12/17 18:46:44;;;;;;;110.30;36.80;;;-6.10;90.10;;;;;;5022386;28;20189;-74
2022/12/17 18:49:13;;;;;;;94.87;37.07;;;-6.20;90.00;;;;;;5014186;28;20610;-72
2022/12/17 18:51:41;;;;;;;104.25;36.92;;;-6.20;90.00;;;;;;5019033;28;20300;-72
2022/12/17 18:54:08;;;;;;;114.07;36.78;;;-6.20;90.10;;;;;;5018697;28;20201;-74
2022/12/17 18:56:36;;;;;;;106.55;38.60;;;-6.30;90.10;;;;;;5025525;28;20291;-74
2022/12/17 18:59:01;;;;;;;95.40;36.13;;;-6.40;90.00;;;;;;5025239;28;20181;-71
2022/12/17 19:01:35;;;;;;;104.47;38.70;;;-6.40;90.10;;;;;;5028029;28;20209;-71
2022/12/17 19:04:03;;;;;;;97.18;35.45;;;-6.50;90.20;;;;;;5023373;28;20186;-72
2022/12/17 19:06:30;;;;;;;110.85;41.25;;;-6.60;90.20;;;;;;5028233;28;20664;-72
2022/12/17 19:08:56;;;;;;;101.68;37.45;;;-6.60;90.30;;;;;;5022942;28;20262;-73
2022/12/17 19:11:22;;;;;;;115.27;40.43;;;-6.70;90.30;;;;;;5025686;28;20652;-73
2022/12/17 19:13:48;;;;;;;99.90;36.83;;;-6.70;90.40;;;;;;5018745;28;20194;-73
2022/12/17 19:16:20;;;;;;;90.93;35.85;;;-6.70;90.60;;;;;;5023403;28;20496;-73
2022/12/17 19:18:51;;;;;;;106.03;39.65;;;-6.70;90.70;;;;;;5022256;28;20178;-72
2022/12/17 19:21:18;;;;;;;114.07;38.42;;;-6.70;90.70;;;;;;5026483;28;20586;-73
2022/12/17 19:23:43;;;;;;;101.65;39.22;;;-6.70;90.70;;;;;;5025740;28;20185;-73
2022/12/17 19:26:16;;;;;;;101.70;37.27;;;-6.70;90.70;;;;;;5028663;28;20212;-70
2022/12/17 19:28:43;;;;;;;107.50;38.92;;;-6.80;90.80;;;;;;5023825;28;20193;-70
2022/12/17 19:31:10;;;;;;;130.20;42.03;;;-6.80;90.90;;;;;;5023361;28;20209;-72
2022/12/17 19:33:35;;;;;;;122.45;42.08;;;-6.80;91.00;;;;;;5020885;28;20204;-71
2022/12/17 19:36:05;;;;;;;106.67;37.93;;;-6.80;91.00;;;;;;5025594;28;20645;-73
2022/12/17 19:38:32;;;;;;;129.65;42.90;;;-6.80;91.30;;;;;;5024789;28;20184;-72
2022/12/17 19:41:09;;;;;;;96.80;37.88;;;-6.80;91.30;;;;;;5019685;28;20660;-73
2022/12/17 19:43:35;;;;;;;126.25;41.25;;;-6.80;91.40;;;;;;5023248;28;20284;-75
2022/12/17 19:46:05;;;;;;;109.10;41.35;;;-6.80;91.50;;;;;;5023285;28;20230;-70
2022/12/17 19:48:33;;;;;;;121.60;39.80;;;-6.80;91.50;;;;;;5028173;28;20174;-73
2022/12/17 19:51:00;;;;;;;132.27;40.45;;;-6.80;91.50;;;;;;5020678;28;20209;-71
2022/12/17 19:53:26;;;;;;;107.97;38.13;;;-6.80;91.50;;;;;;5022317;28;20197;-73
2022/12/17 19:55:54;;;;;;;106.20;38.97;;;-6.80;91.50;;;;;;5027150;28;20186;-76
2022/12/17 19:58:20;;;;;;;105.40;38.00;;;-6.80;91.50;;;;;;5023880;28;20188;-74
2022/12/17 20:00:46;;;;;;;124.90;42.00;;;-6.80;91.50;;;;;;5024964;28;20205;-73
2022/12/17 20:03:11;;;;;;;128.90;41.97;;;-6.80;91.50;;;;;;5021938;28;20986;-72
2022/12/17 20:05:37;;;;;;;125.57;41.03;;;-6.90;91.40;;;;;;5028353;28;20612;-72
2022/12/17 20:08:02;;;;;;;109.60;39.07;;;-6.90;91.40;;;;;;5025964;28;20200;-74
2022/12/17 20:10:28;;;;;;;102.97;37.90;;;-6.90;91.30;;;;;;5022602;28;20209;-72
2022/12/17 20:12:54;;;;;;;110.13;38.97;;;-6.90;91.40;;;;;;5028728;28;20185;-72
2022/12/17 20:15:19;;;;;;;110.63;41.00;;;-7.00;91.50;;;;;;5027499;28;20670;-72
2022/12/17 20:17:45;;;;;;;108.87;37.60;;;-7.00;91.60;;;;;;5022536;28;20268;-74
2022/12/17 20:20:11;;;;;;;110.60;39.53;;;-7.00;91.60;;;;;;5025680;28;20193;-71
2022/12/17 20:22:36;;;;;;;106.07;37.73;;;-6.90;91.80;;;;;;5028045;28;20279;-72
2022/12/17 20:25:06;;;;;;;114.23;38.27;;;-6.90;91.80;;;;;;5026625;28;20232;-72
2022/12/17 20:27:32;;;;;;;133.32;44.10;;;-6.90;91.90;;;;;;5030097;28;20188;-74
2022/12/17 20:29:57;;;;;;;150.33;40.20;;;-6.80;91.90;;;;;;5023393;28;20189;-72
2022/12/17 20:32:23;;;;;;;110.27;42.70;;;-6.90;91.90;;;;;;5031298;28;20274;-72
2022/12/17 20:34:48;;;;;;;107.80;39.30;;;-6.80;91.90;;;;;;5022198;28;20208;-71
2022/12/17 20:37:14;;;;;;;104.40;37.73;;;-6.80;91.90;;;;;;5023504;28;20983;-74
2022/12/17 20:39:39;;;;;;;117.90;40.57;;;-6.80;91.90;;;;;;5026608;28;20177;-70
2022/12/17 20:42:05;;;;;;;120.60;40.97;;;-6.90;91.90;;;;;;5023855;28;20221;-76
2022/12/17 20:44:31;;;;;;;116.60;41.13;;;-6.90;91.90;;;;;;5026472;28;20173;-73
2022/12/17 20:46:56;;;;;;;113.47;37.37;;;-6.90;91.80;;;;;;5032687;28;20190;-72
2022/12/17 20:49:22;;;;;;;94.70;38.07;;;-6.90;91.80;;;;;;5024204;28;20664;-73
2022/12/17 20:51:48;;;;;;;115.10;39.73;;;-6.90;91.80;;;;;;5022267;28;20974;-72
2022/12/17 20:54:13;;;;;;;102.23;38.33;;;-6.90;91.80;;;;;;5030101;28;20196;-74
2022/12/17 20:56:39;;;;;;;107.90;39.50;;;-7.00;91.70;;;;;;5025332;28;20288;-71
2022/12/17 20:59:07;;;;;;;103.10;36.60;;;-6.90;91.70;;;;;;5021431;28;20301;-72
2022/12/17 21:01:34;;;;;;;96.63;36.38;;;-6.90;91.70;;;;;;5020201;28;20242;-72
2022/12/17 21:04:01;;;;;;;96.55;38.55;;;-6.90;91.60;;;;;;5024281;28;20182;-73
2022/12/17 21:06:34;;;;;;;94.32;37.53;;;-6.90;91.40;;;;;;5026867;28;20185;-72
2022/12/17 21:08:59;;;;;;;93.07;33.25;;;-6.90;91.30;;;;;;5018537;28;20189;-72
2022/12/17 21:11:27;;;;;;;101.10;38.80;;;-7.00;91.20;;;;;;5021151;28;20275;-72
2022/12/17 21:13:54;;;;;;;105.90;37.90;;;-7.00;91.20;;;;;;5019130;28;20189;-73
2022/12/17 21:16:22;;;;;;;90.75;35.13;;;-7.00;91.10;;;;;;5022815;28;20582;-71
2022/12/17 21:18:48;;;;;;;88.18;34.88;;;-6.90;91.10;;;;;;5018586;28;20201;-72
2022/12/17 21:21:20;;;;;;;88.00;35.03;;;-6.90;91.10;;;;;;5025175;28;20205;-74
2022/12/17 21:23:47;;;;;;;90.15;35.53;;;-6.90;91.10;;;;;;5020852;28;20268;-74
2022/12/17 21:26:15;;;;;;;97.60;33.88;;;-7.00;91.00;;;;;;5026538;28;20342;-72
2022/12/17 21:28:43;;;;;;;89.88;34.20;;;-6.90;91.00;;;;;;5015796;28;20217;-71
2022/12/17 21:31:18;;;;;;;79.93;33.10;;;-6.90;90.90;;;;;;5024851;28;20224;-72
2022/12/17 21:33:46;;;;;;;91.38;36.13;;;-6.90;90.80;;;;;;5023312;28;20189;-72
2022/12/17 21:36:12;;;;;;;93.65;34.83;;;-6.90;90.80;;;;;;5019948;28;20201;-72
2022/12/17 21:38:38;;;;;;;97.53;37.38;;;-6.90;90.80;;;;;;5020553;28;20597;-72
2022/12/17 21:41:27;;;;;;;88.20;34.30;;;-6.90;90.80;;;;;;5022781;28;20209;-71
2022/12/17 21:43:57;;;;;;;86.60;33.78;;;-6.90;90.80;;;;;;5020731;28;20185;-71
2022/12/17 21:46:22;;;;;;;99.78;36.22;;;-6.80;90.60;;;;;;5028097;28;20189;-71
2022/12/17 21:48:48;;;;;;;99.97;36.90;;;-6.90;90.60;;;;;;5025847;28;20181;-70
2022/12/17 21:51:14;;;;;;;97.10;35.43;;;-6.80;90.50;;;;;;5021005;28;20212;-75
2022/12/17 21:53:42;;;;;;;91.97;35.43;;;-6.80;90.50;;;;;;5028972;28;20263;-72
2022/12/17 21:56:11;;;;;;;105.50;35.85;;;-6.80;90.50;;;;;;5019406;28;20773;-71
2022/12/17 21:58:37;;;;;;;93.55;37.13;;;-6.80;90.50;;;;;;5028445;28;20193;-72
2022/12/17 22:01:09;;;;;;;93.70;35.73;;;-6.70;90.60;;;;;;5026987;28;20585;-71
2022/12/17 22:03:35;;;;;;;92.03;36.40;;;-6.70;90.50;;;;;;5027178;28;20443;-73
2022/12/17 22:06:08;;;;;;;95.93;36.03;;;-6.70;90.50;;;;;;5024575;28;20644;-74
2022/12/17 22:08:34;;;;;;;83.25;35.08;;;-6.60;90.60;;;;;;5021899;28;20424;-71
2022/12/17 22:11:02;;;;;;;94.28;37.40;;;-6.70;90.50;;;;;;5025655;28;20224;-70
2022/12/17 22:16:12;;;;;;;96.90;37.45;;;-6.60;90.50;;;;;;5021881;28;20248;-71
2022/12/17 22:18:39;;;;;;;91.57;35.90;;;-6.60;90.50;;;;;;5020076;28;20212;-72
2022/12/17 22:21:05;;;;;;;95.80;35.92;;;-6.50;90.50;;;;;;5025920;28;20494;-77
2022/12/17 22:23:31;;;;;;;100.60;37.40;;;-6.50;90.50;;;;;;5017966;28;20201;-71
2022/12/17 22:25:57;;;;;;;93.72;34.88;;;-6.50;90.40;;;;;;5028669;28;20644;-72
2022/12/17 22:28:22;;;;;;;84.10;35.77;;;-6.50;90.40;;;;;;5024399;28;20185;-73
2022/12/17 22:33:32;;;;;;;91.05;35.97;;;-6.50;90.30;;;;;;5013726;28;20269;-73
2022/12/17 22:36:03;;;;;;;91.60;36.20;;;-6.50;90.30;;;;;;5020339;28;20275;-71
2022/12/17 22:38:28;;;;;;;95.00;37.13;;;-6.60;90.30;;;;;;5024408;28;20185;-70
2022/12/17 22:40:54;;;;;;;85.80;33.93;;;-6.70;89.90;;;;;;5016777;28;20838;-70
2022/12/17 22:43:29;;;;;;;97.80;36.23;;;-6.60;89.70;;;;;;5021291;28;20192;-72
2022/12/17 22:46:02;;;;;;;96.53;36.70;;;-6.70;89.50;;;;;;5019573;28;20193;-72
2022/12/17 22:48:29;;;;;;;87.05;36.40;;;-6.80;89.00;;;;;;5021595;28;20180;-70
2022/12/17 22:50:56;;;;;;;104.82;38.80;;;-6.70;89.00;;;;;;5018495;28;20224;-73
2022/12/17 22:53:22;;;;;;;79.40;34.92;;;-6.70;89.00;;;;;;5016726;28;20206;-72
2022/12/17 22:55:49;;;;;;;91.10;37.97;;;-6.70;89.00;;;;;;5020903;28;20195;-71
2022/12/17 22:58:14;;;;;;;85.35;35.38;;;-6.80;89.20;;;;;;5019505;28;20221;-71
2022/12/17 23:00:40;;;;;;;94.30;34.23;;;-6.80;89.20;;;;;;5020467;28;20232;-72
2022/12/17 23:03:05;;;;;;;98.53;37.63;;;-6.70;89.60;;;;;;5015961;28;20324;-71
2022/12/17 23:05:32;;;;;;;93.03;35.00;;;-6.80;89.70;;;;;;5020307;28;20247;-72
2022/12/17 23:07:58;;;;;;;96.30;35.47;;;-6.80;89.70;;;;;;5022896;28;20186;-71
2022/12/17 23:10:25;;;;;;;83.20;34.80;;;-6.70;89.90;;;;;;5018391;28;20412;-71
2022/12/17 23:12:55;;;;;;;100.40;36.25;;;-6.70;90.00;;;;;;5020691;28;20189;-70
2022/12/17 23:15:22;;;;;;;99.00;37.50;;;-6.70;90.00;;;;;;5026255;28;20658;-70
2022/12/17 23:17:48;;;;;;;91.32;35.13;;;-6.70;89.70;;;;;;5023660;28;20205;-72
2022/12/17 23:20:14;;;;;;;89.43;35.10;;;-6.70;89.70;;;;;;5012544;28;20186;-70
2022/12/17 23:22:40;;;;;;;96.95;36.63;;;-6.60;89.50;;;;;;5024725;28;20884;-73
2022/12/17 23:25:06;;;;;;;100.77;37.33;;;-6.70;89.50;;;;;;5020967;28;20189;-70
2022/12/17 23:27:32;;;;;;;93.75;35.35;;;-6.70;89.60;;;;;;5022831;28;20435;-72
2022/12/17 23:29:58;;;;;;;102.40;36.10;;;-6.60;89.60;;;;;;5015195;28;20842;-70
2022/12/17 23:32:24;;;;;;;101.40;37.03;;;-6.60;89.60;;;;;;5020020;28;20216;-72
2022/12/17 23:34:49;;;;;;;95.07;33.60;;;-6.70;89.50;;;;;;5016898;28;20435;-72
2022/12/17 23:37:15;;;;;;;87.63;36.47;;;-6.70;89.50;;;;;;5014134;28;20472;-74
2022/12/17 23:39:41;;;;;;;91.13;33.70;;;-6.80;89.50;;;;;;5030616;28;20193;-72
2022/12/17 23:42:06;;;;;;;88.67;35.00;;;-6.80;89.50;;;;;;5021917;28;20213;-70
2022/12/17 23:44:32;;;;;;;98.30;34.10;;;-6.70;89.50;;;;;;5025435;28;20331;-70
2022/12/17 23:46:57;;;;;;;98.40;35.77;;;-6.70;89.50;;;;;;5017340;28;20633;-71
2022/12/17 23:49:23;;;;;;;83.10;33.80;;;-6.70;89.50;;;;;;5027598;28;20244;-70
2022/12/17 23:51:48;;;;;;;87.90;35.30;;;-6.70;89.20;;;;;;5021001;28;20351;-70
2022/12/17 23:54:14;;;;;;;84.17;36.07;;;-6.70;88.90;;;;;;5022577;28;20194;-73
2022/12/17 23:56:39;;;;;;;86.57;34.40;;;-6.80;88.40;;;;;;5020642;28;20205;-71
2022/12/17 23:59:05;;;;;;;83.40;32.10;;;-6.80;88.30;;;;;;5026658;28;20185;-70
